Time;durP1;ratioP1;P1;durP2;ratioP2;P2;SDS_P1;SDS_P2;PMS_P1;PMS_P2;Temp;Humidity;BMP_temperature;BMP_pressure;BME280_temperature;BME280_humidity;BME280_pressure;Samples;Min_cycle;Max_cycle;Signal;HPM_P1;HPM_P2
2023/04/26 17:18:14;;;;;;;;;;;;;;;;;;5038699;28;19927;-58
2023/04/26 17:20:41;;;;;;;;;;;;;;;;;;5035679;28;19921;-58
2023/04/26 17:23:07;;;;;;;;;;;;;;;;;;5039787;28;19924;-53
2023/04/26 17:25:33;;;;;;;;;;;;;;;;;;5037427;28;19960;-58
2023/04/26 17:27:59;;;;;;;;;;;;;;;;;;5038530;28;19953;-54
2023/04/26 17:30:25;;;;;;;;;;;;;;;;;;5050609;22;19924;-59
2023/04/26 17:32:51;;;;;;;;;;;;;;;;;;5039687;28;20582;-59
2023/04/26 17:35:17;;;;;;;;;;;;;;;;;;5044212;28;19931;-59
2023/04/26 17:37:48;;;;;;;;;;;;;;;;;;5042140;28;20271;-59
2023/04/26 17:40:14;;;;;;;;;;;;;;;;;;5044152;28;19924;-57
2023/04/26 17:42:40;;;;;;;;;;;;;;;;;;5038766;28;19909;-59
2023/04/26 17:45:06;;;;;;;;;;;;;;;;;;5047837;28;19913;-60
2023/04/26 17:47:32;;;;;;;;;;;;;;;;;;5045707;28;19968;-59
2023/04/26 17:49:58;;;;;;;;;;;;;;;;;;5043402;28;19921;-59
2023/04/26 17:52:24;;;;;;;;;;;;;;;;;;5047278;28;19917;-57
2023/04/26 17:54:50;;;;;;;;;;;;;;;;;;5043830;28;19990;-59
2023/04/26 17:57:21;;;;;;;;;;;;;;;;;;5047431;28;19924;-62
2023/04/26 17:59:47;;;;;;;;;;;;;;;;;;5041608;28;19913;-64
2023/04/26 18:02:13;;;;;;;;;;;;;;;;;;5047618;28;19925;-57
2023/04/26 18:04:39;;;;;;;;;;;;;;;;;;5044558;28;19916;-61
2023/04/26 18:07:06;;;;;;;;;;;;;;;;;;5038530;28;19928;-59
2023/04/26 18:09:32;;;;;;;;;;;;;;;;;;5039268;28;20007;-55
2023/04/26 18:11:58;;;;;;;;;;;;;;;;;;5030732;28;20064;-60
2023/04/26 18:14:25;;;;;;;;;;;;;;;;;;5051130;28;19915;-61
2023/04/26 18:16:51;;;;;;;;;;;;;;;;;;5045063;28;20366;-60
2023/04/26 18:19:17;;;;;;;;;;;;;;;;;;5039695;28;19916;-61
2023/04/26 18:21:43;;;;;;;;;;;;;;;;;;5044813;28;19913;-58
2023/04/26 18:24:09;;;;;;;;;;;;;;;;;;5046493;28;19966;-59
2023/04/26 18:26:37;;;;;;;;;;;;;;;;;;5040871;28;20294;-57
2023/04/26 18:29:03;;;;;;;;;;;;;;;;;;5031605;28;20010;-62
2023/04/26 18:31:28;;;;;;;;;;;;;;;;;;5031476;28;19952;-63
2023/04/26 18:33:54;;;;;;;;;;;;;;;;;;5028818;28;19920;-64
2023/04/26 18:36:20;;;;;;;;;;;;;;;;;;5011530;28;19917;-61
2023/04/26 18:38:46;;;;;;;;;;;;;;;;;;5025315;28;19913;-58
2023/04/26 18:41:12;;;;;;;;;;;;;;;;;;5031842;28;19913;-59
2023/04/26 18:43:38;;;;;;;;;;;;;;;;;;5025543;28;19913;-67
2023/04/26 18:46:04;;;;;;;;;;;;;;;;;;5025927;28;19924;-62
2023/04/26 18:48:30;;;;;;;;;;;;;;;;;;5024845;28;20004;-64
2023/04/26 18:50:56;;;;;;;;;;;;;;;;;;5041290;28;19913;-66
2023/04/26 18:53:22;;;;;;;;;;;;;;;;;;5029253;28;19924;-64
2023/04/26 18:55:48;;;;;;;;;;;;;;;;;;5026059;28;19924;-60
2023/04/26 18:58:14;;;;;;;;;;;;;;;;;;5023636;28;19917;-65
